Time;durP1;ratioP1;P1;durP2;ratioP2;P2;SDS_P1;SDS_P2;PMS_P1;PMS_P2;Temp;Humidity;BMP_temperature;BMP_pressure;BME280_temperature;BME280_humidity;BME280_pressure;Samples;Min_cycle;Max_cycle;Signal;HPM_P1;HPM_P2
2021/04/13 00:02:27;;;;;;;5.85;4.18;;;3.10;64.40;;;;;;4997610;28;20049;-68
2021/04/13 00:05:06;;;;;;;7.60;4.45;;;3.10;64.60;;;;;;5009290;28;20116;-68
2021/04/13 00:07:34;;;;;;;7.13;4.47;;;3.00;64.50;;;;;;5009799;28;20018;-68
2021/04/13 00:10:05;;;;;;;10.52;4.57;;;3.00;64.40;;;;;;5007373;28;20637;-69
2021/04/13 00:12:32;;;;;;;6.30;4.97;;;3.00;64.60;;;;;;5010310;28;20109;-69
2021/04/13 00:15:11;;;;;;;7.70;4.43;;;3.10;64.70;;;;;;5009240;28;20273;-68
2021/04/13 00:17:40;;;;;;;7.10;4.47;;;3.10;64.70;;;;;;5010036;28;20486;-70
2021/04/13 00:20:17;;;;;;;6.97;4.50;;;3.00;64.60;;;;;;5009870;28;20030;-69
2021/04/13 00:22:44;;;;;;;6.53;4.35;;;3.00;64.60;;;;;;5009771;28;20022;-70
2021/04/13 00:25:30;;;;;;;6.55;4.50;;;3.00;64.80;;;;;;5009128;28;20509;-68
2021/04/13 00:27:56;;;;;;;10.00;4.88;;;3.00;65.00;;;;;;5004538;28;20029;-70
2021/04/13 00:30:28;;;;;;;6.68;4.30;;;3.00;64.90;;;;;;5010092;28;20064;-69
2021/04/13 00:33:03;;;;;;;7.68;3.97;;;3.00;65.00;;;;;;5008760;28;20102;-68
2021/04/13 00:36:07;;;;;;;6.88;4.03;;;2.90;64.80;;;;;;5009343;28;20437;-70
2021/04/13 00:38:24;;;;;;;6.65;4.68;;;2.80;64.90;;;;;;4995956;28;20149;-69
2021/04/13 00:40:52;;;;;;;7.10;4.50;;;2.80;65.20;;;;;;5000869;28;20443;-68
2021/04/13 00:43:22;;;;;;;7.03;4.00;;;2.80;65.10;;;;;;5025349;28;20026;-69
2021/04/13 00:45:49;;;;;;;5.03;3.92;;;2.70;65.20;;;;;;5009362;28;20030;-69
2021/04/13 00:48:31;;;;;;;5.22;3.65;;;2.70;65.10;;;;;;5010741;28;20026;-69
2021/04/13 00:51:23;;;;;;;5.05;3.10;;;2.60;65.30;;;;;;5009456;28;20026;-69
2021/04/13 00:53:54;;;;;;;7.28;3.90;;;2.60;65.40;;;;;;5008367;28;20025;-68
2021/04/13 00:56:20;;;;;;;6.43;4.35;;;2.60;65.50;;;;;;5009599;28;20092;-69
2021/04/13 00:58:55;;;;;;;4.75;3.75;;;2.60;65.40;;;;;;5009345;28;20034;-69
2021/04/13 01:01:27;;;;;;;7.50;3.83;;;2.50;65.50;;;;;;5009457;28;20053;-69
2021/04/13 01:04:02;;;;;;;4.60;3.33;;;2.40;65.60;;;;;;5008507;28;20026;-69
2021/04/13 01:06:31;;;;;;;6.25;3.80;;;2.40;65.90;;;;;;5009306;28;20030;-69
2021/04/13 01:09:11;;;;;;;5.82;3.97;;;2.40;65.90;;;;;;5009510;28;20026;-68
2021/04/13 01:11:46;;;;;;;5.97;3.53;;;2.40;66.00;;;;;;5004199;28;20025;-69
2021/04/13 01:14:13;;;;;;;5.07;3.30;;;2.30;65.90;;;;;;5008797;28;20458;-69
2021/04/13 01:17:00;;;;;;;5.68;3.80;;;2.30;65.90;;;;;;5009127;28;20033;-69
2021/04/13 01:19:48;;;;;;;5.05;4.00;;;2.30;66.20;;;;;;5009166;28;20026;-69
2021/04/13 01:22:19;;;;;;;6.50;4.22;;;2.30;66.30;;;;;;5013122;28;20521;-70
2021/04/13 01:24:54;;;;;;;8.05;3.90;;;2.30;66.40;;;;;;5012406;28;20125;-69
2021/04/13 01:27:22;;;;;;;5.95;4.50;;;2.30;66.20;;;;;;5012938;28;20041;-69
2021/04/13 01:29:50;;;;;;;6.60;3.92;;;2.40;66.40;;;;;;5014628;28;20051;-69
2021/04/13 01:32:17;;;;;;;7.55;3.92;;;2.40;66.40;;;;;;5007512;28;20026;-69
2021/04/13 01:35:27;;;;;;;7.22;3.83;;;2.40;66.30;;;;;;4996263;28;20104;-70
2021/04/13 01:40:45;;;;;;;6.47;3.95;;;2.50;66.40;;;;;;5008532;28;20025;-69
2021/04/13 01:43:12;;;;;;;6.45;3.97;;;2.50;66.30;;;;;;5012973;28;20034;-69
2021/04/13 01:45:40;;;;;;;7.88;4.07;;;2.50;66.10;;;;;;5012042;28;20028;-69
2021/04/13 01:48:07;;;;;;;5.90;3.83;;;2.50;66.20;;;;;;5012727;28;20042;-69
2021/04/13 01:50:35;;;;;;;4.88;3.95;;;2.60;66.30;;;;;;5012448;28;20108;-69
2021/04/13 01:53:17;;;;;;;6.35;3.83;;;2.50;66.20;;;;;;5012570;28;20030;-69
2021/04/13 01:55:52;;;;;;;6.05;4.30;;;2.50;66.30;;;;;;5008967;28;20026;-69
2021/04/13 01:58:36;;;;;;;7.30;4.65;;;2.50;66.40;;;;;;5006461;28;20108;-69
2021/04/13 02:01:22;;;;;;;8.43;4.35;;;2.60;66.50;;;;;;5012716;28;20061;-69
2021/04/13 02:03:57;;;;;;;5.68;4.13;;;2.60;66.40;;;;;;5012066;28;20700;-69
2021/04/13 02:06:50;;;;;;;6.53;4.50;;;2.50;66.30;;;;;;5012166;28;20026;-69
2021/04/13 02:09:49;;;;;;;7.13;4.38;;;2.50;66.20;;;;;;5012544;28;20030;-69
2021/04/13 02:12:17;;;;;;;5.50;4.13;;;2.50;66.00;;;;;;5002890;28;20034;-69
2021/04/13 02:14:52;;;;;;;6.38;4.28;;;2.40;66.10;;;;;;5011295;28;20026;-69
2021/04/13 02:17:36;;;;;;;6.07;4.50;;;2.40;66.40;;;;;;5012405;28;20092;-69
2021/04/13 02:20:04;;;;;;;4.80;4.30;;;2.30;66.50;;;;;;4992983;28;20414;-70
2021/04/13 02:22:29;;;;;;;7.88;4.75;;;2.30;66.60;;;;;;5000306;28;20048;-69
2021/04/13 02:25:04;;;;;;;7.82;4.40;;;2.30;67.10;;;;;;5011372;28;20022;-69
2021/04/13 02:27:37;;;;;;;9.98;4.22;;;2.30;66.80;;;;;;5012076;28;20029;-69
2021/04/13 02:30:15;;;;;;;6.82;4.72;;;2.30;66.80;;;;;;5012253;28;20133;-69
2021/04/13 02:32:47;;;;;;;8.88;4.72;;;2.20;67.00;;;;;;5003012;28;20032;-69
2021/04/13 02:35:25;;;;;;;8.40;4.82;;;2.20;66.90;;;;;;4991756;28;20034;-69
2021/04/13 02:37:54;;;;;;;11.23;5.40;;;2.20;67.00;;;;;;5002316;28;20037;-70
2021/04/13 02:40:29;;;;;;;8.10;4.85;;;2.20;67.00;;;;;;5008683;28;20018;-69
2021/04/13 02:42:58;;;;;;;8.32;5.05;;;2.20;67.10;;;;;;5021886;28;20176;-70
2021/04/13 02:45:31;;;;;;;8.82;4.68;;;2.20;67.10;;;;;;5011198;28;20021;-70
2021/04/13 02:48:20;;;;;;;9.63;5.07;;;2.20;67.00;;;;;;5011308;28;20385;-69
2021/04/13 02:50:47;;;;;;;7.32;5.15;;;2.20;67.10;;;;;;5011685;28;20022;-70
2021/04/13 02:53:16;;;;;;;9.18;5.35;;;2.20;67.10;;;;;;5011555;28;20452;-69
2021/04/13 02:55:53;;;;;;;7.35;4.93;;;2.20;67.10;;;;;;5011076;28;20390;-69
2021/04/13 02:58:23;;;;;;;9.13;5.32;;;2.20;67.30;;;;;;5007228;28;20110;-69
2021/04/13 03:00:52;;;;;;;9.13;5.32;;;2.20;67.30;;;;;;5011383;28;20390;-69
2021/04/13 03:03:35;;;;;;;10.38;5.40;;;2.20;67.30;;;;;;5011390;28;20417;-70
2021/04/13 03:06:02;;;;;;;9.30;4.95;;;2.10;67.30;;;;;;4991435;28;20101;-69
2021/04/13 03:08:33;;;;;;;8.63;5.03;;;2.10;67.20;;;;;;5009652;28;20405;-69
2021/04/13 03:11:17;;;;;;;10.63;5.83;;;2.10;67.50;;;;;;5002933;28;20022;-70
2021/04/13 03:13:44;;;;;;;7.80;6.07;;;2.00;67.50;;;;;;4991810;28;20034;-69
2021/04/13 03:16:12;;;;;;;6.28;4.68;;;2.00;67.30;;;;;;5010015;28;20431;-69
2021/04/13 03:18:47;;;;;;;8.50;5.38;;;2.00;67.40;;;;;;5010968;28;20132;-69
2021/04/13 03:21:24;;;;;;;7.75;5.10;;;2.00;67.50;;;;;;5010451;28;20044;-68
2021/04/13 03:23:53;;;;;;;9.07;5.32;;;1.90;67.30;;;;;;5010894;28;20022;-68
2021/04/13 03:26:33;;;;;;;9.15;5.10;;;1.90;67.40;;;;;;5027667;28;20413;-69
2021/04/13 03:29:15;;;;;;;7.30;5.13;;;1.90;67.70;;;;;;5010998;28;20544;-68
2021/04/13 03:31:41;;;;;;;7.07;4.93;;;1.90;67.80;;;;;;5008117;28;20038;-68
2021/04/13 03:34:08;;;;;;;7.70;5.05;;;1.90;67.80;;;;;;5008565;28;20388;-68
2021/04/13 03:36:34;;;;;;;7.63;4.93;;;1.80;67.80;;;;;;4998170;28;20026;-68
2021/04/13 03:39:13;;;;;;;11.50;5.85;;;1.80;67.90;;;;;;5010961;28;20466;-69
2021/04/13 03:41:44;;;;;;;10.18;5.60;;;1.80;68.00;;;;;;5009884;28;20556;-69
2021/04/13 03:44:14;;;;;;;8.90;5.40;;;1.80;68.00;;;;;;5009577;28;20391;-69
2021/04/13 03:46:40;;;;;;;8.07;5.55;;;1.80;67.90;;;;;;5010473;28;20459;-69
2021/04/13 03:49:32;;;;;;;7.95;5.50;;;1.80;67.90;;;;;;5010506;28;20077;-68
2021/04/13 03:52:08;;;;;;;7.80;5.85;;;1.80;68.10;;;;;;5010205;28;20485;-68
2021/04/13 03:54:36;;;;;;;7.68;5.82;;;1.80;68.00;;;;;;5010092;28;20038;-69
2021/04/13 03:57:04;;;;;;;9.63;5.85;;;1.80;67.80;;;;;;5010162;28;20095;-68
2021/04/13 03:59:37;;;;;;;9.48;6.22;;;1.80;67.90;;;;;;5010089;28;20034;-69
2021/04/13 04:02:06;;;;;;;7.32;5.75;;;1.80;67.90;;;;;;5010164;28;20053;-68
2021/04/13 04:04:35;;;;;;;9.70;6.03;;;1.80;67.80;;;;;;5009836;28;20022;-69
2021/04/13 04:07:24;;;;;;;9.25;5.72;;;1.80;68.00;;;;;;5010886;28;20029;-69
2021/04/13 04:09:49;;;;;;;9.77;7.00;;;1.70;68.10;;;;;;5010324;28;20509;-68
2021/04/13 04:12:20;;;;;;;12.20;7.57;;;1.70;68.00;;;;;;5010375;28;20038;-69
2021/04/13 04:15:05;;;;;;;11.85;7.07;;;1.70;68.10;;;;;;5009912;28;20033;-68
2021/04/13 04:17:36;;;;;;;11.98;8.02;;;1.70;68.30;;;;;;5010538;28;20030;-68
2021/04/13 04:20:10;;;;;;;11.88;7.35;;;1.70;68.30;;;;;;5010552;28;20051;-68
2021/04/13 04:22:46;;;;;;;13.07;7.68;;;1.70;68.30;;;;;;5010453;28;20430;-68
2021/04/13 04:25:20;;;;;;;12.00;7.05;;;1.70;68.20;;;;;;5009697;28;20021;-69
2021/04/13 04:27:47;;;;;;;8.93;6.45;;;1.60;68.40;;;;;;5012137;28;20022;-68
2021/04/13 04:30:22;;;;;;;12.40;7.40;;;1.60;68.40;;;;;;5009865;28;20137;-68
2021/04/13 04:32:49;;;;;;;11.05;7.05;;;1.70;68.60;;;;;;5000711;28;20022;-68
2021/04/13 04:35:43;;;;;;;9.93;6.90;;;1.70;68.40;;;;;;5002727;28;20044;-68
2021/04/13 04:38:28;;;;;;;9.82;6.55;;;1.70;68.50;;;;;;5011010;28;20045;-67
2021/04/13 04:41:06;;;;;;;13.43;7.18;;;1.70;68.40;;;;;;5005550;28;20057;-68
2021/04/13 04:43:46;;;;;;;12.20;7.50;;;1.70;68.30;;;;;;5008547;28;20105;-68
2021/04/13 04:46:35;;;;;;;13.98;6.93;;;1.70;68.30;;;;;;5009319;28;20033;-68
2021/04/13 04:49:23;;;;;;;12.05;6.55;;;1.70;68.40;;;;;;5010391;28;20040;-68
2021/04/13 04:51:51;;;;;;;8.93;6.35;;;1.70;68.40;;;;;;5009394;28;20089;-68
2021/04/13 04:54:17;;;;;;;11.23;6.25;;;1.70;68.20;;;;;;5009459;28;20077;-68
2021/04/13 04:56:43;;;;;;;9.05;6.43;;;1.70;68.20;;;;;;5009664;28;20108;-68
2021/04/13 04:59:09;;;;;;;9.77;6.53;;;1.70;68.30;;;;;;5010305;28;20022;-68
2021/04/13 05:01:35;;;;;;;10.55;6.68;;;1.70;68.40;;;;;;5010010;28;20622;-68
2021/04/13 05:04:01;;;;;;;13.88;6.82;;;1.70;68.50;;;;;;5009800;28;20029;-68
2021/04/13 05:06:27;;;;;;;10.55;6.78;;;1.70;68.50;;;;;;5009756;28;20389;-68
2021/04/13 05:08:54;;;;;;;11.90;6.38;;;1.70;68.50;;;;;;5010103;28;20084;-68
2021/04/13 05:11:20;;;;;;;9.65;6.50;;;1.70;68.60;;;;;;5009310;28;20041;-68
2021/04/13 05:13:46;;;;;;;12.25;7.50;;;1.70;68.60;;;;;;5009382;28;20398;-67
2021/04/13 05:16:12;;;;;;;10.02;6.63;;;1.80;68.70;;;;;;5009208;28;20037;-68
2021/04/13 05:18:38;;;;;;;9.90;6.85;;;1.80;68.50;;;;;;5010135;28;20030;-68
2021/04/13 05:21:04;;;;;;;9.48;7.10;;;1.90;68.60;;;;;;5009783;28;20581;-68
2021/04/13 05:23:30;;;;;;;11.13;6.88;;;1.90;68.60;;;;;;5009716;28;20116;-68
2021/04/13 05:25:56;;;;;;;9.50;6.65;;;1.90;68.40;;;;;;5005931;28;20117;-68
2021/04/13 05:28:22;;;;;;;9.43;6.32;;;2.00;68.40;;;;;;4995508;28;20682;-69
2021/04/13 05:30:50;;;;;;;9.27;6.93;;;2.00;69.00;;;;;;4998217;28;20040;-70
2021/04/13 05:33:17;;;;;;;9.82;6.85;;;2.10;68.50;;;;;;5009014;28;20030;-69
2021/04/13 05:35:42;;;;;;;11.57;6.97;;;2.10;68.40;;;;;;5009082;28;20041;-69
2021/04/13 05:38:40;;;;;;;11.50;7.00;;;2.10;68.30;;;;;;5009881;28;20053;-69
2021/04/13 05:41:08;;;;;;;9.93;7.10;;;2.10;68.50;;;;;;4997824;28;20027;-69
2021/04/13 05:43:38;;;;;;;10.27;7.25;;;2.10;68.40;;;;;;5002897;28;20487;-69
2021/04/13 05:46:04;;;;;;;11.45;8.07;;;2.20;68.60;;;;;;5009157;28;20109;-69
2021/04/13 05:48:29;;;;;;;10.32;8.00;;;2.20;68.50;;;;;;5009326;28;20443;-68
2021/04/13 05:50:56;;;;;;;10.65;7.63;;;2.30;68.50;;;;;;5010866;28;20061;-69
2021/04/13 05:53:22;;;;;;;10.23;6.68;;;2.30;68.60;;;;;;5009620;28;20018;-69
2021/04/13 05:55:49;;;;;;;11.60;6.30;;;2.30;68.60;;;;;;5008876;28;20026;-69
2021/04/13 05:58:18;;;;;;;11.20;6.68;;;2.30;68.50;;;;;;5009317;28;20100;-69
2021/04/13 06:00:51;;;;;;;9.52;5.93;;;2.30;68.60;;;;;;5006621;28;20048;-70
2021/04/13 06:03:19;;;;;;;10.40;6.47;;;2.30;68.70;;;;;;4994328;28;20027;-69
2021/04/13 06:05:45;;;;;;;11.70;6.30;;;2.40;68.70;;;;;;5004601;28;20025;-70
2021/04/13 06:08:12;;;;;;;10.85;6.53;;;2.40;69.10;;;;;;5011080;28;20029;-69
2021/04/13 06:10:38;;;;;;;9.65;6.72;;;2.40;68.70;;;;;;5007052;28;20454;-68
2021/04/13 06:13:05;;;;;;;9.70;6.57;;;2.50;68.80;;;;;;5012683;28;20033;-68
2021/04/13 06:15:32;;;;;;;10.95;6.75;;;2.60;68.80;;;;;;5018126;28;20022;-68
2021/04/13 06:17:58;;;;;;;12.93;6.97;;;2.60;68.90;;;;;;5012573;28;20057;-69
2021/04/13 06:20:25;;;;;;;10.75;7.13;;;2.70;68.90;;;;;;5017260;28;20451;-69
2021/04/13 06:22:52;;;;;;;14.90;8.32;;;2.70;68.90;;;;;;5004115;28;20034;-69
2021/04/13 06:25:20;;;;;;;11.20;8.48;;;2.80;68.90;;;;;;4996809;28;20364;-71
2021/04/13 06:27:46;;;;;;;13.82;8.75;;;2.90;68.90;;;;;;5003696;28;20022;-70
2021/04/13 06:30:17;;;;;;;13.85;8.50;;;3.00;68.70;;;;;;5008130;28;20022;-69
2021/04/13 06:32:42;;;;;;;16.27;8.93;;;3.20;68.60;;;;;;5012415;28;20088;-68
2021/04/13 06:35:08;;;;;;;13.48;8.73;;;3.30;68.20;;;;;;5011311;28;20033;-69
2021/04/13 06:37:35;;;;;;;14.75;9.07;;;3.50;68.00;;;;;;5013642;28;20058;-69
2021/04/13 06:40:05;;;;;;;15.88;8.77;;;3.60;67.90;;;;;;5007715;28;20026;-69
2021/04/13 06:43:05;;;;;;;13.98;9.40;;;3.80;67.80;;;;;;5008906;28;20080;-69
2021/04/13 06:45:35;;;;;;;12.98;8.60;;;4.00;67.70;;;;;;4958852;28;20122;-69
2021/04/13 06:48:22;;;;;;;14.27;8.15;;;4.20;67.30;;;;;;4992847;28;20030;-69
2021/04/13 06:50:58;;;;;;;12.40;8.70;;;4.30;67.20;;;;;;5009284;28;20045;-68
2021/04/13 06:53:34;;;;;;;13.23;8.77;;;4.50;67.10;;;;;;5026115;28;20096;-69
2021/04/13 06:56:25;;;;;;;14.90;8.82;;;4.70;66.90;;;;;;5027155;28;20056;-69
2021/04/13 06:59:28;;;;;;;13.05;8.15;;;4.90;66.70;;;;;;5011661;28;20033;-69
2021/04/13 07:01:58;;;;;;;;;;;5.20;66.30;;;;;;5012283;28;20030;-69
2021/04/13 07:04:50;;;;;;;12.02;8.32;;;5.40;65.80;;;;;;5010635;28;20341;-69
2021/04/13 07:07:37;;;;;;;11.93;8.25;;;5.60;65.90;;;;;;5012160;28;20022;-68
2021/04/13 07:10:17;;;;;;;11.05;8.30;;;6.00;65.60;;;;;;5027829;28;20025;-69
2021/04/13 07:13:05;;;;;;;13.32;9.18;;;6.20;65.40;;;;;;5004848;28;20412;-68
2021/04/13 07:15:31;;;;;;;12.73;8.00;;;6.50;65.10;;;;;;5011465;28;20064;-68
2021/04/13 07:18:03;;;;;;;11.18;8.05;;;6.70;64.60;;;;;;5011241;28;20061;-69
2021/04/13 07:21:09;;;;;;;12.68;8.95;;;6.90;64.10;;;;;;5011736;28;20022;-69
2021/04/13 07:23:43;;;;;;;12.85;8.60;;;7.00;64.00;;;;;;5011650;28;20520;-70
2021/04/13 07:26:20;;;;;;;14.05;8.60;;;7.20;63.40;;;;;;5011183;28;20026;-69
2021/04/13 07:28:56;;;;;;;16.30;8.80;;;7.30;63.60;;;;;;5011493;28;20107;-69
2021/04/13 07:31:54;;;;;;;12.25;8.02;;;7.50;63.10;;;;;;5004080;28;20031;-68
2021/04/13 07:34:21;;;;;;;11.50;8.25;;;7.60;63.40;;;;;;4995762;28;20045;-69
2021/04/13 07:36:55;;;;;;;11.25;7.93;;;7.90;63.20;;;;;;5002785;28;20034;-69
2021/04/13 07:39:24;;;;;;;12.73;7.63;;;8.00;62.50;;;;;;5011582;28;20116;-69
2021/04/13 07:41:55;;;;;;;10.82;7.90;;;8.20;62.90;;;;;;5002433;28;20482;-69
2021/04/13 07:44:27;;;;;;;13.00;9.15;;;8.40;62.80;;;;;;5010809;28;20461;-68
2021/04/13 07:47:06;;;;;;;11.73;7.60;;;8.60;62.40;;;;;;5012260;28;20037;-68
2021/04/13 07:49:49;;;;;;;10.35;7.72;;;8.90;62.30;;;;;;5009585;28;20506;-68
2021/04/13 07:52:24;;;;;;;8.43;7.53;;;9.10;62.10;;;;;;4991770;28;20074;-70
2021/04/13 07:55:07;;;;;;;10.07;6.85;;;9.40;61.90;;;;;;5024310;28;20489;-69
2021/04/13 07:57:40;;;;;;;8.90;7.13;;;9.70;61.40;;;;;;5010834;28;21780;-69
2021/04/13 08:00:31;;;;;;;10.13;7.45;;;9.90;61.10;;;;;;5010974;28;20124;-70
2021/04/13 08:03:08;;;;;;;7.13;6.28;;;10.10;60.60;;;;;;5007925;28;20513;-69
2021/04/13 08:05:43;;;;;;;10.20;7.35;;;10.40;60.50;;;;;;5002280;28;20128;-69
2021/04/13 08:08:28;;;;;;;9.32;6.97;;;10.50;59.40;;;;;;5010840;28;20490;-70
2021/04/13 08:11:17;;;;;;;13.60;6.80;;;10.80;59.60;;;;;;5002284;28;20494;-70
2021/04/13 08:13:48;;;;;;;11.98;8.07;;;10.90;58.80;;;;;;5010777;28;20026;-69
2021/04/13 08:16:32;;;;;;;8.35;6.97;;;11.20;58.90;;;;;;5011061;28;20026;-68
2021/04/13 08:19:32;;;;;;;9.10;6.60;;;11.30;59.10;;;;;;5006418;28;20535;-71
2021/04/13 08:22:11;;;;;;;7.47;6.55;;;11.60;57.90;;;;;;4950074;28;20034;-70
2021/04/13 08:24:41;;;;;;;6.88;6.15;;;11.70;57.50;;;;;;4990819;28;20032;-72
2021/04/13 08:27:22;;;;;;;9.60;6.25;;;12.00;57.80;;;;;;5007724;28;20030;-71
2021/04/13 08:30:16;;;;;;;8.07;6.07;;;12.20;57.30;;;;;;5001265;28;20038;-70
2021/04/13 08:33:06;;;;;;;7.47;6.00;;;11.80;57.10;;;;;;5016045;28;20018;-69
2021/04/13 08:36:03;;;;;;;33.65;19.25;;;11.70;56.80;;;;;;5010073;28;20022;-69
2021/04/13 08:38:32;;;;;;;9.10;6.78;;;11.40;57.00;;;;;;4998377;28;20034;-70
2021/04/13 08:41:13;;;;;;;7.70;6.47;;;11.60;56.40;;;;;;5004962;28;20068;-71
2021/04/13 08:43:45;;;;;;;7.72;5.28;;;11.70;55.70;;;;;;5010722;28;20025;-70
2021/04/13 08:46:46;;;;;;;6.13;5.53;;;12.00;55.20;;;;;;5010284;28;20552;-71
2021/04/13 08:49:30;;;;;;;6.43;5.70;;;11.80;55.50;;;;;;4994110;28;20038;-70
2021/04/13 08:52:17;;;;;;;5.70;5.13;;;12.00;55.10;;;;;;5010677;28;20033;-69
2021/04/13 08:54:49;;;;;;;7.53;5.00;;;12.50;54.20;;;;;;5009905;28;20026;-69
2021/04/13 08:57:36;;;;;;;6.32;5.30;;;12.70;53.20;;;;;;5010290;28;20112;-74
2021/04/13 09:00:26;;;;;;;4.70;4.30;;;12.70;53.40;;;;;;5008562;28;20029;-69
2021/04/13 09:03:00;;;;;;;9.70;4.85;;;12.50;52.90;;;;;;5002079;28;20030;-69
2021/04/13 09:05:28;;;;;;;5.28;4.50;;;11.90;52.90;;;;;;5004982;28;20033;-68
2021/04/13 09:08:03;;;;;;;6.78;4.88;;;11.40;53.40;;;;;;5010442;28;20030;-68
2021/04/13 09:10:48;;;;;;;4.32;3.83;;;11.20;53.60;;;;;;5005729;28;20021;-69
2021/04/13 09:13:23;;;;;;;5.43;4.10;;;11.00;53.10;;;;;;5010380;28;20105;-72
2021/04/13 09:15:58;;;;;;;5.53;4.70;;;10.60;53.60;;;;;;5009672;28;20026;-69
2021/04/13 09:18:46;;;;;;;5.05;4.50;;;10.30;53.40;;;;;;5010394;28;20034;-69
2021/04/13 09:21:23;;;;;;;5.88;4.43;;;10.50;53.60;;;;;;5010027;28;20030;-69
2021/04/13 09:23:58;;;;;;;4.88;3.95;;;12.90;49.40;;;;;;5009714;28;20026;-70
2021/04/13 09:27:00;;;;;;;4.57;4.10;;;14.50;46.40;;;;;;5010027;28;20030;-69
2021/04/13 09:29:31;;;;;;;4.72;4.20;;;15.70;44.60;;;;;;4944912;28;20034;-70
2021/04/13 09:32:03;;;;;;;5.03;3.90;;;16.20;43.50;;;;;;5010214;28;20482;-69
2021/04/13 09:34:44;;;;;;;5.45;4.05;;;16.80;43.50;;;;;;5008342;28;20096;-70
2021/04/13 09:37:37;;;;;;;8.15;4.78;;;15.40;44.50;;;;;;5019909;28;20026;-69
2021/04/13 09:40:10;;;;;;;5.13;4.30;;;16.60;44.30;;;;;;5010506;28;20080;-70
2021/04/13 09:42:45;;;;;;;7.88;4.45;;;16.40;44.30;;;;;;5013101;28;20061;-66
2021/04/13 09:45:28;;;;;;;76.68;43.30;;;15.10;45.20;;;;;;5012732;28;20383;-68
2021/04/13 09:48:38;;;;;;;5.75;4.20;;;14.00;47.20;;;;;;5014757;28;20065;-71
2021/04/13 09:51:07;;;;;;;5.43;3.85;;;13.10;48.60;;;;;;5013690;28;20030;-68
2021/04/13 09:53:54;;;;;;;4.95;3.92;;;12.60;49.40;;;;;;5013503;28;20041;-70
2021/04/13 09:56:39;;;;;;;4.40;3.80;;;12.90;48.80;;;;;;5013254;28;20034;-69
2021/04/13 09:59:32;;;;;;;11.27;7.35;;;12.60;48.90;;;;;;5013016;28;20138;-68
2021/04/13 10:02:18;;;;;;;4.25;3.65;;;12.20;49.10;;;;;;5004629;28;20029;-68
2021/04/13 10:04:44;;;;;;;4.50;4.05;;;12.20;49.60;;;;;;5004305;28;20029;-68
2021/04/13 10:07:35;;;;;;;4.40;3.83;;;12.00;50.00;;;;;;5010378;28;20022;-68
2021/04/13 10:10:04;;;;;;;4.75;3.88;;;11.80;50.10;;;;;;5012853;28;20022;-70
2021/04/13 10:12:48;;;;;;;5.00;4.03;;;12.00;49.50;;;;;;5008510;28;20045;-69
2021/04/13 10:15:26;;;;;;;4.30;3.65;;;11.80;49.20;;;;;;5027748;23;20054;-71
2021/04/13 10:18:21;;;;;;;3.65;3.25;;;11.50;49.50;;;;;;5019169;28;20038;-73
2021/04/13 10:21:05;;;;;;;4.20;3.78;;;11.30;49.70;;;;;;5010949;28;20101;-74
2021/04/13 10:23:56;;;;;;;4.38;3.92;;;11.00;50.00;;;;;;4977463;28;20037;-73
2021/04/13 10:26:44;;;;;;;7.10;3.40;;;10.80;50.10;;;;;;4977264;28;20030;-73
2021/04/13 10:29:47;;;;;;;4.93;4.45;;;10.60;50.40;;;;;;4995583;28;20042;-73
2021/04/13 10:32:45;;;;;;;5.25;3.95;;;10.80;49.90;;;;;;5003042;28;20030;-74
2021/04/13 10:35:29;;;;;;;4.10;3.70;;;11.10;50.10;;;;;;4995091;28;20026;-73
2021/04/13 10:38:16;;;;;;;4.72;3.55;;;11.30;49.70;;;;;;5012695;28;20496;-73
2021/04/13 10:41:06;;;;;;;3.15;2.85;;;11.30;49.70;;;;;;5011974;28;20517;-72
2021/04/13 10:43:50;;;;;;;4.88;3.60;;;11.20;49.60;;;;;;4986728;28;20029;-72
2021/04/13 10:46:19;;;;;;;3.80;3.20;;;11.00;49.80;;;;;;4995339;28;20629;-72
2021/04/13 10:49:16;;;;;;;4.70;3.00;;;10.80;49.90;;;;;;4995695;28;20026;-72
2021/04/13 10:52:00;;;;;;;3.63;2.80;;;10.80;49.50;;;;;;5002451;28;20088;-73
2021/04/13 10:54:48;;;;;;;5.13;4.68;;;11.00;49.50;;;;;;5010134;28;20033;-73
2021/04/13 10:57:35;;;;;;;4.78;3.17;;;11.30;47.80;;;;;;4995691;28;20037;-73
2021/04/13 11:00:10;;;;;;;3.50;3.20;;;11.40;47.60;;;;;;4995689;28;20037;-72
2021/04/13 11:02:57;;;;;;;3.53;3.13;;;11.70;48.20;;;;;;4995655;28;20025;-72
2021/04/13 11:05:50;;;;;;;3.85;3.47;;;12.00;48.30;;;;;;4994639;28;20550;-71
2021/04/13 11:08:39;;;;;;;;;;;12.10;48.10;;;;;;4996398;28;20026;-73
2021/04/13 11:11:19;;;;;;;3.50;3.17;;;12.00;49.10;;;;;;4975471;28;19905;-72
2021/04/13 11:14:09;;;;;;;3.75;2.70;;;11.80;48.60;;;;;;5017315;28;20378;-72
2021/04/13 11:17:09;;;;;;;5.25;2.95;;;11.60;49.00;;;;;;5001434;28;20068;-71
2021/04/13 11:19:58;;;;;;;3.25;2.90;;;11.40;48.40;;;;;;4992954;28;20543;-73
2021/04/13 11:22:43;;;;;;;3.83;3.42;;;11.20;48.20;;;;;;5005573;28;20109;-72
2021/04/13 11:25:45;;;;;;;3.33;3.03;;;11.00;48.50;;;;;;5004026;28;20558;-72
2021/04/13 11:28:51;;;;;;;3.40;3.10;;;10.90;48.30;;;;;;4989923;28;20022;-72
2021/04/13 11:31:38;;;;;;;4.75;3.22;;;10.80;48.50;;;;;;4995160;28;20026;-72
2021/04/13 11:34:24;;;;;;;4.28;2.88;;;10.70;48.40;;;;;;4994430;28;20057;-71
2021/04/13 11:37:35;;;;;;;3.15;2.85;;;10.60;48.10;;;;;;4995029;28;20030;-72
2021/04/13 11:40:38;;;;;;;3.75;2.75;;;10.40;48.10;;;;;;4959559;28;20038;-72
2021/04/13 11:43:06;;;;;;;4.03;3.10;;;10.20;48.30;;;;;;5001242;28;20033;-72
2021/04/13 11:45:48;;;;;;;5.70;2.90;;;10.10;48.20;;;;;;4985751;28;20109;-72
2021/04/13 11:48:25;;;;;;;4.63;3.15;;;10.20;48.50;;;;;;4986358;28;20040;-72
2021/04/13 11:51:18;;;;;;;2.58;2.30;;;10.40;48.40;;;;;;4975700;28;20038;-73
2021/04/13 11:53:47;;;;;;;3.53;2.20;;;10.80;48.30;;;;;;5010897;28;20406;-72
2021/04/13 11:56:22;;;;;;;2.17;2.00;;;11.10;47.80;;;;;;4994249;28;20556;-72
2021/04/13 11:59:17;;;;;;;3.05;2.10;;;11.50;46.80;;;;;;4994528;28;20037;-72
2021/04/13 12:01:43;;;;;;;2.28;2.10;;;11.80;45.40;;;;;;4990008;28;20044;-72
2021/04/13 12:04:12;;;;;;;3.03;2.20;;;12.00;45.90;;;;;;4988009;28;20030;-72
2021/04/13 12:07:03;;;;;;;3.58;2.47;;;12.10;45.80;;;;;;4975420;28;20019;-71
2021/04/13 12:10:01;;;;;;;2.88;2.20;;;12.10;45.70;;;;;;4968544;28;20034;-72
2021/04/13 12:12:30;;;;;;;3.28;2.60;;;12.10;46.20;;;;;;4981408;28;20402;-72
2021/04/13 12:15:16;;;;;;;2.50;2.15;;;12.00;46.10;;;;;;4994038;28;20036;-72
2021/04/13 12:17:44;;;;;;;2.50;2.00;;;11.70;45.50;;;;;;4990220;28;20390;-72
2021/04/13 12:20:40;;;;;;;2.75;2.10;;;11.50;45.60;;;;;;4975119;28;20085;-72
2021/04/13 12:23:05;;;;;;;2.28;2.08;;;11.30;46.10;;;;;;4991986;28;20409;-71
2021/04/13 12:25:50;;;;;;;2.88;1.95;;;11.10;46.20;;;;;;4984476;28;20031;-71
2021/04/13 12:28:40;;;;;;;3.55;1.77;;;10.90;46.10;;;;;;5007316;28;20030;-71
2021/04/13 12:31:25;;;;;;;2.72;2.00;;;11.00;46.30;;;;;;4982345;28;20030;-71
2021/04/13 12:34:07;;;;;;;2.25;2.00;;;11.20;45.90;;;;;;4994213;28;20065;-71
2021/04/13 12:36:46;;;;;;;3.42;2.20;;;11.30;45.30;;;;;;4994273;28;20026;-72
2021/04/13 12:39:41;;;;;;;2.42;1.95;;;11.40;45.40;;;;;;4994651;28;20029;-72
2021/04/13 12:42:24;;;;;;;2.30;1.95;;;11.70;45.60;;;;;;4993195;28;20030;-72
2021/04/13 12:45:19;;;;;;;2.25;2.00;;;11.80;45.40;;;;;;4992180;28;20029;-72
2021/04/13 12:48:08;;;;;;;3.45;2.05;;;12.10;45.20;;;;;;4999101;28;20025;-72
2021/04/13 12:50:51;;;;;;;2.63;2.00;;;11.90;44.60;;;;;;4974714;28;20025;-71
2021/04/13 12:53:21;;;;;;;;;;;11.70;44.70;;;;;;5007433;28;20030;-71
2021/04/13 12:55:59;;;;;;;4.25;2.35;;;11.40;46.10;;;;;;4993368;28;20399;-72
2021/04/13 12:58:35;;;;;;;3.55;2.35;;;11.30;45.70;;;;;;4994589;28;20088;-72
2021/04/13 13:01:01;;;;;;;3.33;2.35;;;11.20;45.90;;;;;;4993971;28;20048;-72
2021/04/13 13:03:31;;;;;;;2.35;2.13;;;11.10;45.60;;;;;;4994108;28;20490;-71
2021/04/13 13:05:57;;;;;;;3.10;2.05;;;11.10;45.50;;;;;;4993788;28;20021;-71
2021/04/13 13:08:29;;;;;;;2.95;1.88;;;11.00;45.20;;;;;;4994365;28;20508;-72
2021/04/13 13:10:57;;;;;;;2.65;2.40;;;11.00;44.80;;;;;;4994161;28;20089;-71
2021/04/13 13:13:28;;;;;;;2.33;2.20;;;11.00;44.50;;;;;;4994105;28;20041;-71
2021/04/13 13:15:54;;;;;;;4.22;2.63;;;11.00;44.00;;;;;;4990820;28;20043;-71
2021/04/13 13:18:36;;;;;;;2.88;2.50;;;10.90;44.20;;;;;;4991567;28;20026;-70
2021/04/13 13:21:06;;;;;;;2.92;1.92;;;10.80;43.90;;;;;;4998106;28;20026;-71
2021/04/13 13:23:47;;;;;;;3.28;2.05;;;10.80;44.10;;;;;;4998159;28;20091;-70
2021/04/13 13:26:21;;;;;;;3.45;2.10;;;10.70;44.00;;;;;;4991645;28;20025;-71
2021/04/13 13:28:47;;;;;;;2.45;1.90;;;10.60;43.80;;;;;;4998098;28;20108;-72
2021/04/13 13:31:34;;;;;;;1.92;1.80;;;10.60;43.90;;;;;;5013461;28;20088;-71
2021/04/13 13:34:02;;;;;;;2.33;1.95;;;10.40;43.90;;;;;;4997126;28;20030;-71
2021/04/13 13:36:35;;;;;;;2.58;2.38;;;10.40;44.20;;;;;;4997813;28;20053;-71
2021/04/13 13:39:06;;;;;;;3.72;2.70;;;10.40;44.40;;;;;;4997782;28;20116;-72
2021/04/13 13:41:32;;;;;;;5.35;2.90;;;10.50;44.60;;;;;;4997557;28;20034;-72
2021/04/13 13:43:58;;;;;;;3.90;2.85;;;10.60;44.80;;;;;;4996879;28;20046;-71
2021/04/13 13:46:34;;;;;;;3.95;2.83;;;10.70;45.20;;;;;;4983109;28;20113;-72